Portada
METAR-TAF:

METAR-TAF

Aeroports :

Aeroport Internacional del Caire

El Caire, Egipte

latitud: 30-08N, longitud: 031-24E, altitud: 64 m

Observació

L'informe es va fer fa 13 minuts, a les 08:00 UTC
Vent 6 kt del Nord/Nord-Oest
Temperatura 30°C
Humitat 52%
Pressió 1010 hPa
Visibilitat: 6000 m
Núvols disperses a una alçada de 2500 ft

METAR: HECA 180800Z 34006KT 6000 SCT025 30/19 Q1010 NOSIG

Hora: 10:13 (08:13 UTC)

Pronòstic

L'informe es va fer fa 3 hores i 13 minuts, a les 05:00 UTC
Pronòstic vàlid del 18 a les 06 UTC al 19 a les 12 UTC
Vent 8 kt del Nord/Nord-Est
Visibilitat: 6000 m
Temporalment
l' 18 a les 06 UTC al 18 a les 08 UTC
Vent 3 kt amb direcció variable
Evolucionant progressivament
l' 18 a les 08 UTC al 18 a les 10 UTC
Vent 10 kt del Nord/Nord-Oest
Visibilitat 10 km o més
sense núvols per sota de 1500 mi sense presència de cumulonimbus.

TAF: HECA 180500Z 1806/1912 02008KT 6000 NSC TEMPO 1806/1808 VRB03KT 3000BR BECMG 1808/1810 34010KT CAVOK

Observacions i pronòstics meteorològics de més de 4000 aeroports (METAR i TAF).

Les estacions disponibles són els punts grocs i vermells al mapa.

Posi el ratolí al punt desitjat per veure el nom de l'estació.

Feu clic per veure les observacions i els pronòstics meteorològics.

Per canviar el mapa: feu clic els botons verds amb una creu de color negre per apropar; al botó verd amb un guió per allunyar la imatge; o en les fletxes verdes per a mapes adjacents.


METAR-TAF: